sensor_id;sensor_type;location;lat;lon;timestamp;temperature;humidity
22153;DHT22;11242;50.536;12.688;2024-03-07T00:00:08;2.00;99.90
22153;DHT22;11242;50.536;12.688;2024-03-07T00:02:47;2.00;99.90
22153;DHT22;11242;50.536;12.688;2024-03-07T00:05:14;2.10;99.90
22153;DHT22;11242;50.536;12.688;2024-03-07T00:07:39;2.10;99.90
22153;DHT22;11242;50.536;12.688;2024-03-07T00:10:06;2.00;99.90
22153;DHT22;11242;50.536;12.688;2024-03-07T00:12:33;2.00;99.90
22153;DHT22;11242;50.536;12.688;2024-03-07T00:15:01;2.00;99.90
22153;DHT22;11242;50.536;12.688;2024-03-07T00:17:26;2.00;99.90
22153;DHT22;11242;50.536;12.688;2024-03-07T00:19:52;2.10;99.90
22153;DHT22;11242;50.536;12.688;2024-03-07T00:22:17;2.10;99.90
22153;DHT22;11242;50.536;12.688;2024-03-07T00:24:43;2.10;99.90
22153;DHT22;11242;50.536;12.688;2024-03-07T00:27:12;2.00;99.90
22153;DHT22;11242;50.536;12.688;2024-03-07T00:29:40;2.00;99.90
22153;DHT22;11242;50.536;12.688;2024-03-07T00:32:06;2.10;99.90
22153;DHT22;11242;50.536;12.688;2024-03-07T00:34:32;2.10;99.90
22153;DHT22;11242;50.536;12.688;2024-03-07T00:36:58;2.10;99.90
22153;DHT22;11242;50.536;12.688;2024-03-07T00:39:24;2.10;99.90
22153;DHT22;11242;50.536;12.688;2024-03-07T00:41:50;2.10;99.90
22153;DHT22;11242;50.536;12.688;2024-03-07T00:44:16;2.00;99.90
22153;DHT22;11242;50.536;12.688;2024-03-07T00:46:42;2.00;99.90
22153;DHT22;11242;50.536;12.688;2024-03-07T00:49:08;2.00;99.90
22153;DHT22;11242;50.536;12.688;2024-03-07T00:51:34;2.00;99.90
22153;DHT22;11242;50.536;12.688;2024-03-07T00:54:00;2.00;99.90
22153;DHT22;11242;50.536;12.688;2024-03-07T00:56:25;1.90;99.90
22153;DHT22;11242;50.536;12.688;2024-03-07T00:58:51;1.90;99.90
22153;DHT22;11242;50.536;12.688;2024-03-07T01:01:17;2.00;99.90
22153;DHT22;11242;50.536;12.688;2024-03-07T01:03:44;2.00;99.90
22153;DHT22;11242;50.536;12.688;2024-03-07T01:06:10;2.10;99.90
22153;DHT22;11242;50.536;12.688;2024-03-07T01:08:36;2.10;99.90
22153;DHT22;11242;50.536;12.688;2024-03-07T01:11:03;2.10;99.90
22153;DHT22;11242;50.536;12.688;2024-03-07T01:13:40;2.10;99.90
22153;DHT22;11242;50.536;12.688;2024-03-07T01:16:06;2.10;99.90
22153;DHT22;11242;50.536;12.688;2024-03-07T01:18:32;2.10;99.90
22153;DHT22;11242;50.536;12.688;2024-03-07T01:21:01;2.20;99.90
22153;DHT22;11242;50.536;12.688;2024-03-07T01:23:27;2.20;99.90
22153;DHT22;11242;50.536;12.688;2024-03-07T01:25:56;2.20;99.90
22153;DHT22;11242;50.536;12.688;2024-03-07T01:28:25;2.10;99.90
22153;DHT22;11242;50.536;12.688;2024-03-07T01:30:51;2.10;99.90
22153;DHT22;11242;50.536;12.688;2024-03-07T01:33:21;2.10;99.90
22153;DHT22;11242;50.536;12.688;2024-03-07T01:35:46;2.10;99.90
22153;DHT22;11242;50.536;12.688;2024-03-07T01:38:12;2.00;99.90
22153;DHT22;11242;50.536;12.688;2024-03-07T01:40:40;2.10;99.90
22153;DHT22;11242;50.536;12.688;2024-03-07T01:43:06;2.00;99.90
22153;DHT22;11242;50.536;12.688;2024-03-07T01:45:32;2.00;99.90
22153;DHT22;11242;50.536;12.688;2024-03-07T01:47:58;2.00;99.90
22153;DHT22;11242;50.536;12.688;2024-03-07T01:50:24;2.00;99.90
22153;DHT22;11242;50.536;12.688;2024-03-07T01:52:50;1.90;99.90
22153;DHT22;11242;50.536;12.688;2024-03-07T01:55:22;2.00;99.90
22153;DHT22;11242;50.536;12.688;2024-03-07T01:57:49;2.00;99.90
22153;DHT22;11242;50.536;12.688;2024-03-07T02:00:14;2.00;99.90
22153;DHT22;11242;50.536;12.688;2024-03-07T02:02:40;2.00;99.90
22153;DHT22;11242;50.536;12.688;2024-03-07T02:05:06;2.00;99.90
22153;DHT22;11242;50.536;12.688;2024-03-07T02:07:32;2.00;99.90
22153;DHT22;11242;50.536;12.688;2024-03-07T02:10:03;1.90;99.90
22153;DHT22;11242;50.536;12.688;2024-03-07T02:12:29;1.90;99.90
22153;DHT22;11242;50.536;12.688;2024-03-07T02:14:56;1.90;99.90
22153;DHT22;11242;50.536;12.688;2024-03-07T02:17:26;1.90;99.90
22153;DHT22;11242;50.536;12.688;2024-03-07T02:19:52;1.90;99.90
22153;DHT22;11242;50.536;12.688;2024-03-07T02:22:18;1.90;99.90
22153;DHT22;11242;50.536;12.688;2024-03-07T02:24:44;1.90;99.90
22153;DHT22;11242;50.536;12.688;2024-03-07T02:27:11;1.90;99.90
22153;DHT22;11242;50.536;12.688;2024-03-07T02:29:36;1.90;99.90
22153;DHT22;11242;50.536;12.688;2024-03-07T02:32:02;1.90;99.90
22153;DHT22;11242;50.536;12.688;2024-03-07T02:34:28;1.90;99.90
22153;DHT22;11242;50.536;12.688;2024-03-07T02:36:54;1.90;99.90
22153;DHT22;11242;50.536;12.688;2024-03-07T02:39:20;1.90;99.90
22153;DHT22;11242;50.536;12.688;2024-03-07T02:41:46;1.90;99.90
22153;DHT22;11242;50.536;12.688;2024-03-07T02:44:13;2.00;99.90
22153;DHT22;11242;50.536;12.688;2024-03-07T02:46:39;2.00;99.90
22153;DHT22;11242;50.536;12.688;2024-03-07T02:49:05;1.90;99.90
22153;DHT22;11242;50.536;12.688;2024-03-07T02:51:30;1.90;99.90
22153;DHT22;11242;50.536;12.688;2024-03-07T02:53:56;2.00;99.90
22153;DHT22;11242;50.536;12.688;2024-03-07T02:56:23;2.00;99.90
22153;DHT22;11242;50.536;12.688;2024-03-07T02:58:49;1.90;99.90
22153;DHT22;11242;50.536;12.688;2024-03-07T03:01:14;1.90;99.90
22153;DHT22;11242;50.536;12.688;2024-03-07T03:03:40;1.90;99.90
22153;DHT22;11242;50.536;12.688;2024-03-07T03:06:08;2.00;99.90
22153;DHT22;11242;50.536;12.688;2024-03-07T03:08:34;2.00;99.90
22153;DHT22;11242;50.536;12.688;2024-03-07T03:11:00;2.00;99.90
22153;DHT22;11242;50.536;12.688;2024-03-07T03:13:26;2.00;99.90
22153;DHT22;11242;50.536;12.688;2024-03-07T03:15:55;2.00;99.90
22153;DHT22;11242;50.536;12.688;2024-03-07T03:18:23;2.00;99.90
22153;DHT22;11242;50.536;12.688;2024-03-07T03:20:50;2.00;99.90
22153;DHT22;11242;50.536;12.688;2024-03-07T03:23:15;2.00;99.90
22153;DHT22;11242;50.536;12.688;2024-03-07T03:25:41;2.00;99.90
22153;DHT22;11242;50.536;12.688;2024-03-07T03:28:08;2.00;99.90
22153;DHT22;11242;50.536;12.688;2024-03-07T03:30:40;2.00;99.90
22153;DHT22;11242;50.536;12.688;2024-03-07T03:33:07;2.00;99.90
22153;DHT22;11242;50.536;12.688;2024-03-07T03:35:39;2.00;99.90
22153;DHT22;11242;50.536;12.688;2024-03-07T03:38:05;1.90;99.90
22153;DHT22;11242;50.536;12.688;2024-03-07T03:40:31;1.90;99.90
22153;DHT22;11242;50.536;12.688;2024-03-07T03:42:57;1.90;99.90
22153;DHT22;11242;50.536;12.688;2024-03-07T03:45:22;1.90;99.90
22153;DHT22;11242;50.536;12.688;2024-03-07T03:47:51;1.90;99.90
22153;DHT22;11242;50.536;12.688;2024-03-07T03:50:17;2.00;99.90
22153;DHT22;11242;50.536;12.688;2024-03-07T03:52:43;2.00;99.90
22153;DHT22;11242;50.536;12.688;2024-03-07T03:55:09;1.90;99.90
22153;DHT22;11242;50.536;12.688;2024-03-07T03:57:35;2.00;99.90
22153;DHT22;11242;50.536;12.688;2024-03-07T04:00:02;2.00;99.90
22153;DHT22;11242;50.536;12.688;2024-03-07T04:02:37;2.00;99.90
22153;DHT22;11242;50.536;12.688;2024-03-07T04:05:03;2.00;99.90
22153;DHT22;11242;50.536;12.688;2024-03-07T04:07:29;2.00;99.90
22153;DHT22;11242;50.536;12.688;2024-03-07T04:09:57;1.90;99.90
22153;DHT22;11242;50.536;12.688;2024-03-07T04:12:23;1.90;99.90
22153;DHT22;11242;50.536;12.688;2024-03-07T04:14:49;1.90;99.90
22153;DHT22;11242;50.536;12.688;2024-03-07T04:17:15;1.90;99.90
22153;DHT22;11242;50.536;12.688;2024-03-07T04:19:41;1.90;99.90
22153;DHT22;11242;50.536;12.688;2024-03-07T04:22:08;1.90;99.90
22153;DHT22;11242;50.536;12.688;2024-03-07T04:24:37;1.80;99.90
22153;DHT22;11242;50.536;12.688;2024-03-07T04:27:03;1.80;99.90
22153;DHT22;11242;50.536;12.688;2024-03-07T04:29:32;1.70;99.90
22153;DHT22;11242;50.536;12.688;2024-03-07T04:31:59;1.70;99.90
22153;DHT22;11242;50.536;12.688;2024-03-07T04:34:24;1.70;99.90
22153;DHT22;11242;50.536;12.688;2024-03-07T04:36:50;1.70;99.90
22153;DHT22;11242;50.536;12.688;2024-03-07T04:39:16;1.70;99.90
22153;DHT22;11242;50.536;12.688;2024-03-07T04:41:53;1.70;99.90
22153;DHT22;11242;50.536;12.688;2024-03-07T04:44:19;1.70;99.90
22153;DHT22;11242;50.536;12.688;2024-03-07T04:46:48;1.70;99.90
22153;DHT22;11242;50.536;12.688;2024-03-07T04:49:15;1.80;99.90
22153;DHT22;11242;50.536;12.688;2024-03-07T04:51:40;1.80;99.90
22153;DHT22;11242;50.536;12.688;2024-03-07T04:54:06;1.80;99.90
22153;DHT22;11242;50.536;12.688;2024-03-07T04:56:32;1.90;99.90
22153;DHT22;11242;50.536;12.688;2024-03-07T04:58:57;1.80;99.90
22153;DHT22;11242;50.536;12.688;2024-03-07T05:01:23;1.80;99.90
22153;DHT22;11242;50.536;12.688;2024-03-07T05:03:50;1.80;99.90
22153;DHT22;11242;50.536;12.688;2024-03-07T05:06:17;1.70;99.90
22153;DHT22;11242;50.536;12.688;2024-03-07T05:08:43;1.60;99.90
22153;DHT22;11242;50.536;12.688;2024-03-07T05:11:08;1.60;99.90
22153;DHT22;11242;50.536;12.688;2024-03-07T05:13:34;1.60;99.90
22153;DHT22;11242;50.536;12.688;2024-03-07T05:15:59;1.60;99.90
22153;DHT22;11242;50.536;12.688;2024-03-07T05:18:26;1.60;99.90
22153;DHT22;11242;50.536;12.688;2024-03-07T05:20:51;1.60;99.90
22153;DHT22;11242;50.536;12.688;2024-03-07T05:23:17;1.50;99.90
22153;DHT22;11242;50.536;12.688;2024-03-07T05:25:43;1.50;99.90
22153;DHT22;11242;50.536;12.688;2024-03-07T05:28:11;1.50;99.90
22153;DHT22;11242;50.536;12.688;2024-03-07T05:30:37;1.60;99.90
22153;DHT22;11242;50.536;12.688;2024-03-07T05:33:02;1.60;99.90
22153;DHT22;11242;50.536;12.688;2024-03-07T05:35:28;1.60;99.90
22153;DHT22;11242;50.536;12.688;2024-03-07T05:37:57;1.60;99.90
22153;DHT22;11242;50.536;12.688;2024-03-07T05:40:23;1.60;99.90
22153;DHT22;11242;50.536;12.688;2024-03-07T05:42:49;1.60;99.90
22153;DHT22;11242;50.536;12.688;2024-03-07T05:45:14;1.60;99.90
22153;DHT22;11242;50.536;12.688;2024-03-07T05:47:43;1.60;99.90
22153;DHT22;11242;50.536;12.688;2024-03-07T05:50:09;1.70;99.90
22153;DHT22;11242;50.536;12.688;2024-03-07T05:52:34;1.70;99.90
22153;DHT22;11242;50.536;12.688;2024-03-07T05:55:00;1.70;99.90
22153;DHT22;11242;50.536;12.688;2024-03-07T05:57:26;1.80;99.90
22153;DHT22;11242;50.536;12.688;2024-03-07T05:59:51;1.80;99.90
22153;DHT22;11242;50.536;12.688;2024-03-07T06:02:17;1.80;99.90
22153;DHT22;11242;50.536;12.688;2024-03-07T06:04:43;1.80;99.90
22153;DHT22;11242;50.536;12.688;2024-03-07T06:07:09;1.80;99.90
22153;DHT22;11242;50.536;12.688;2024-03-07T06:09:36;1.80;99.90
22153;DHT22;11242;50.536;12.688;2024-03-07T06:12:02;1.80;99.90
22153;DHT22;11242;50.536;12.688;2024-03-07T06:14:29;1.80;99.90
22153;DHT22;11242;50.536;12.688;2024-03-07T06:16:55;1.80;99.90
22153;DHT22;11242;50.536;12.688;2024-03-07T06:19:23;1.90;99.90
22153;DHT22;11242;50.536;12.688;2024-03-07T06:21:49;1.90;99.90
22153;DHT22;11242;50.536;12.688;2024-03-07T06:24:14;2.00;99.90
22153;DHT22;11242;50.536;12.688;2024-03-07T06:26:41;2.00;99.90
22153;DHT22;11242;50.536;12.688;2024-03-07T06:29:06;2.00;99.90
22153;DHT22;11242;50.536;12.688;2024-03-07T06:31:33;2.00;99.90
22153;DHT22;11242;50.536;12.688;2024-03-07T06:33:58;2.00;99.90
22153;DHT22;11242;50.536;12.688;2024-03-07T06:36:24;2.00;99.90
22153;DHT22;11242;50.536;12.688;2024-03-07T06:38:53;1.90;99.90
22153;DHT22;11242;50.536;12.688;2024-03-07T06:41:19;2.00;99.90
22153;DHT22;11242;50.536;12.688;2024-03-07T06:43:45;2.00;99.90
22153;DHT22;11242;50.536;12.688;2024-03-07T06:46:10;2.10;99.90
22153;DHT22;11242;50.536;12.688;2024-03-07T06:48:38;2.20;99.90
22153;DHT22;11242;50.536;12.688;2024-03-07T06:51:05;2.20;99.90
22153;DHT22;11242;50.536;12.688;2024-03-07T06:53:31;2.30;99.90
22153;DHT22;11242;50.536;12.688;2024-03-07T06:55:57;2.40;99.90
22153;DHT22;11242;50.536;12.688;2024-03-07T06:58:22;2.40;99.90
22153;DHT22;11242;50.536;12.688;2024-03-07T07:00:48;2.30;99.90
22153;DHT22;11242;50.536;12.688;2024-03-07T07:03:17;2.20;99.90
22153;DHT22;11242;50.536;12.688;2024-03-07T07:05:44;2.20;99.90
22153;DHT22;11242;50.536;12.688;2024-03-07T07:08:10;2.20;99.90
22153;DHT22;11242;50.536;12.688;2024-03-07T07:10:36;2.20;99.90
22153;DHT22;11242;50.536;12.688;2024-03-07T07:13:02;2.20;99.90
22153;DHT22;11242;50.536;12.688;2024-03-07T07:15:29;2.30;99.90
22153;DHT22;11242;50.536;12.688;2024-03-07T07:17:55;2.20;99.90
22153;DHT22;11242;50.536;12.688;2024-03-07T07:20:21;2.20;99.90
22153;DHT22;11242;50.536;12.688;2024-03-07T07:22:49;2.20;99.90
22153;DHT22;11242;50.536;12.688;2024-03-07T07:25:15;2.10;99.90
22153;DHT22;11242;50.536;12.688;2024-03-07T07:27:49;2.10;99.90
22153;DHT22;11242;50.536;12.688;2024-03-07T07:30:17;2.20;99.90
22153;DHT22;11242;50.536;12.688;2024-03-07T07:32:43;2.40;99.90
22153;DHT22;11242;50.536;12.688;2024-03-07T07:35:10;2.50;99.90
22153;DHT22;11242;50.536;12.688;2024-03-07T07:37:42;2.60;99.90
22153;DHT22;11242;50.536;12.688;2024-03-07T07:40:10;2.80;99.90
22153;DHT22;11242;50.536;12.688;2024-03-07T07:42:41;3.00;99.90
22153;DHT22;11242;50.536;12.688;2024-03-07T07:45:08;3.20;99.90
22153;DHT22;11242;50.536;12.688;2024-03-07T07:47:49;3.40;99.90
22153;DHT22;11242;50.536;12.688;2024-03-07T07:50:19;3.60;99.90
22153;DHT22;11242;50.536;12.688;2024-03-07T07:52:56;3.80;99.90
22153;DHT22;11242;50.536;12.688;2024-03-07T07:55:29;4.00;99.90
22153;DHT22;11242;50.536;12.688;2024-03-07T07:57:56;3.90;99.90
22153;DHT22;11242;50.536;12.688;2024-03-07T08:00:23;3.80;99.90
22153;DHT22;11242;50.536;12.688;2024-03-07T08:02:51;3.60;99.90
22153;DHT22;11242;50.536;12.688;2024-03-07T08:05:21;3.60;99.90
22153;DHT22;11242;50.536;12.688;2024-03-07T08:07:52;3.40;99.90
22153;DHT22;11242;50.536;12.688;2024-03-07T08:10:19;3.30;99.90
22153;DHT22;11242;50.536;12.688;2024-03-07T08:12:45;3.30;99.90
22153;DHT22;11242;50.536;12.688;2024-03-07T08:15:14;3.30;99.90
22153;DHT22;11242;50.536;12.688;2024-03-07T08:17:41;3.30;99.90
22153;DHT22;11242;50.536;12.688;2024-03-07T08:20:09;3.20;99.90
22153;DHT22;11242;50.536;12.688;2024-03-07T08:22:40;3.10;99.90
22153;DHT22;11242;50.536;12.688;2024-03-07T08:25:13;3.10;99.90
22153;DHT22;11242;50.536;12.688;2024-03-07T08:27:41;3.00;99.90
22153;DHT22;11242;50.536;12.688;2024-03-07T08:30:08;2.80;99.90
22153;DHT22;11242;50.536;12.688;2024-03-07T08:32:42;3.00;99.90
22153;DHT22;11242;50.536;12.688;2024-03-07T08:35:09;4.10;99.90
22153;DHT22;11242;50.536;12.688;2024-03-07T08:37:42;4.70;99.90
22153;DHT22;11242;50.536;12.688;2024-03-07T08:40:09;5.30;99.90
22153;DHT22;11242;50.536;12.688;2024-03-07T08:42:40;5.60;99.90
22153;DHT22;11242;50.536;12.688;2024-03-07T08:45:07;6.80;99.90
22153;DHT22;11242;50.536;12.688;2024-03-07T08:47:36;6.60;99.90
22153;DHT22;11242;50.536;12.688;2024-03-07T08:50:02;6.30;99.90
22153;DHT22;11242;50.536;12.688;2024-03-07T08:52:37;5.80;99.90
22153;DHT22;11242;50.536;12.688;2024-03-07T08:55:04;5.50;99.90
22153;DHT22;11242;50.536;12.688;2024-03-07T08:57:30;5.60;99.90
22153;DHT22;11242;50.536;12.688;2024-03-07T08:59:56;4.90;99.90
22153;DHT22;11242;50.536;12.688;2024-03-07T09:02:22;4.70;99.90
22153;DHT22;11242;50.536;12.688;2024-03-07T09:04:48;4.60;99.90
22153;DHT22;11242;50.536;12.688;2024-03-07T09:07:13;4.10;99.90
22153;DHT22;11242;50.536;12.688;2024-03-07T09:09:43;3.90;99.90
22153;DHT22;11242;50.536;12.688;2024-03-07T09:12:09;3.70;99.90
22153;DHT22;11242;50.536;12.688;2024-03-07T09:14:35;3.60;99.90
22153;DHT22;11242;50.536;12.688;2024-03-07T09:17:01;3.70;99.90
22153;DHT22;11242;50.536;12.688;2024-03-07T09:19:26;3.80;99.90
22153;DHT22;11242;50.536;12.688;2024-03-07T09:21:54;3.80;99.90
22153;DHT22;11242;50.536;12.688;2024-03-07T09:24:20;3.90;99.90
22153;DHT22;11242;50.536;12.688;2024-03-07T09:26:49;3.80;99.90
22153;DHT22;11242;50.536;12.688;2024-03-07T09:29:15;3.90;99.90
22153;DHT22;11242;50.536;12.688;2024-03-07T09:31:41;4.10;99.90
22153;DHT22;11242;50.536;12.688;2024-03-07T09:34:07;4.40;99.90
22153;DHT22;11242;50.536;12.688;2024-03-07T09:36:33;4.50;99.90
22153;DHT22;11242;50.536;12.688;2024-03-07T09:39:00;4.40;99.90
22153;DHT22;11242;50.536;12.688;2024-03-07T09:41:26;4.60;99.90
22153;DHT22;11242;50.536;12.688;2024-03-07T09:43:52;4.70;99.90
22153;DHT22;11242;50.536;12.688;2024-03-07T09:46:22;4.90;99.90
22153;DHT22;11242;50.536;12.688;2024-03-07T09:48:49;5.10;99.90
22153;DHT22;11242;50.536;12.688;2024-03-07T09:51:19;5.40;99.90
22153;DHT22;11242;50.536;12.688;2024-03-07T09:53:48;5.30;99.90
22153;DHT22;11242;50.536;12.688;2024-03-07T09:56:17;4.90;99.90
22153;DHT22;11242;50.536;12.688;2024-03-07T09:58:50;4.80;99.90
22153;DHT22;11242;50.536;12.688;2024-03-07T10:01:20;4.50;99.90
22153;DHT22;11242;50.536;12.688;2024-03-07T10:03:47;4.50;99.90
22153;DHT22;11242;50.536;12.688;2024-03-07T10:06:15;4.30;99.90
22153;DHT22;11242;50.536;12.688;2024-03-07T10:08:42;4.10;99.90
22153;DHT22;11242;50.536;12.688;2024-03-07T10:11:07;4.20;99.90
22153;DHT22;11242;50.536;12.688;2024-03-07T10:13:34;4.30;99.90
22153;DHT22;11242;50.536;12.688;2024-03-07T10:16:01;4.30;99.90
22153;DHT22;11242;50.536;12.688;2024-03-07T10:18:26;4.30;99.90
22153;DHT22;11242;50.536;12.688;2024-03-07T10:20:56;4.20;99.90
22153;DHT22;11242;50.536;12.688;2024-03-07T10:23:22;4.20;99.90
22153;DHT22;11242;50.536;12.688;2024-03-07T10:25:48;4.40;99.90
22153;DHT22;11242;50.536;12.688;2024-03-07T10:28:16;4.60;99.90
22153;DHT22;11242;50.536;12.688;2024-03-07T10:30:43;4.70;99.90
22153;DHT22;11242;50.536;12.688;2024-03-07T10:33:13;4.90;99.90
22153;DHT22;11242;50.536;12.688;2024-03-07T10:35:38;5.20;99.90
22153;DHT22;11242;50.536;12.688;2024-03-07T10:38:04;5.00;99.90
22153;DHT22;11242;50.536;12.688;2024-03-07T10:40:32;5.00;99.90
22153;DHT22;11242;50.536;12.688;2024-03-07T10:42:59;5.00;99.90
22153;DHT22;11242;50.536;12.688;2024-03-07T10:45:33;4.80;99.90
22153;DHT22;11242;50.536;12.688;2024-03-07T10:48:02;4.30;99.90
22153;DHT22;11242;50.536;12.688;2024-03-07T10:53:34;4.60;99.90
22153;DHT22;11242;50.536;12.688;2024-03-07T10:58:58;4.80;99.90
22153;DHT22;11242;50.536;12.688;2024-03-07T11:01:30;4.50;99.90
22153;DHT22;11242;50.536;12.688;2024-03-07T11:03:57;4.30;99.90
22153;DHT22;11242;50.536;12.688;2024-03-07T11:06:24;4.60;99.90
22153;DHT22;11242;50.536;12.688;2024-03-07T11:08:52;5.20;99.90
22153;DHT22;11242;50.536;12.688;2024-03-07T11:11:17;5.00;99.90
22153;DHT22;11242;50.536;12.688;2024-03-07T11:13:44;4.80;99.90
22153;DHT22;11242;50.536;12.688;2024-03-07T11:16:11;4.70;99.90
22153;DHT22;11242;50.536;12.688;2024-03-07T11:18:38;4.60;99.90
22153;DHT22;11242;50.536;12.688;2024-03-07T11:21:05;4.50;99.90
22153;DHT22;11242;50.536;12.688;2024-03-07T11:23:33;4.60;99.90
22153;DHT22;11242;50.536;12.688;2024-03-07T11:26:10;5.00;99.90
22153;DHT22;11242;50.536;12.688;2024-03-07T11:31:15;4.90;99.90
22153;DHT22;11242;50.536;12.688;2024-03-07T11:34:16;4.50;99.90
22153;DHT22;11242;50.536;12.688;2024-03-07T11:36:44;4.60;99.90
22153;DHT22;11242;50.536;12.688;2024-03-07T11:39:45;4.80;99.90
22153;DHT22;11242;50.536;12.688;2024-03-07T11:42:23;4.60;99.90
22153;DHT22;11242;50.536;12.688;2024-03-07T11:44:51;4.40;99.90
22153;DHT22;11242;50.536;12.688;2024-03-07T11:47:17;4.40;99.90
22153;DHT22;11242;50.536;12.688;2024-03-07T11:49:44;4.20;99.90
22153;DHT22;11242;50.536;12.688;2024-03-07T11:52:14;4.10;99.90
22153;DHT22;11242;50.536;12.688;2024-03-07T11:54:42;4.10;99.90
22153;DHT22;11242;50.536;12.688;2024-03-07T11:57:18;3.90;99.90
22153;DHT22;11242;50.536;12.688;2024-03-07T11:59:52;4.00;99.90
22153;DHT22;11242;50.536;12.688;2024-03-07T12:02:19;4.30;99.90
22153;DHT22;11242;50.536;12.688;2024-03-07T12:04:50;4.30;99.90
22153;DHT22;11242;50.536;12.688;2024-03-07T12:07:16;4.40;99.90
22153;DHT22;11242;50.536;12.688;2024-03-07T12:09:44;4.50;99.90
22153;DHT22;11242;50.536;12.688;2024-03-07T12:12:16;4.60;99.90
22153;DHT22;11242;50.536;12.688;2024-03-07T12:14:43;4.40;99.90
22153;DHT22;11242;50.536;12.688;2024-03-07T12:17:08;4.50;99.90
22153;DHT22;11242;50.536;12.688;2024-03-07T12:19:34;4.80;99.90
22153;DHT22;11242;50.536;12.688;2024-03-07T12:22:03;5.10;99.90
22153;DHT22;11242;50.536;12.688;2024-03-07T12:24:29;5.50;99.90
22153;DHT22;11242;50.536;12.688;2024-03-07T12:27:14;5.70;99.90
22153;DHT22;11242;50.536;12.688;2024-03-07T12:29:42;5.80;99.90
22153;DHT22;11242;50.536;12.688;2024-03-07T12:32:09;5.90;99.90
22153;DHT22;11242;50.536;12.688;2024-03-07T12:34:40;5.70;99.90
22153;DHT22;11242;50.536;12.688;2024-03-07T12:37:11;5.40;99.90
22153;DHT22;11242;50.536;12.688;2024-03-07T12:39:41;5.50;99.90
22153;DHT22;11242;50.536;12.688;2024-03-07T12:42:15;5.30;99.90
22153;DHT22;11242;50.536;12.688;2024-03-07T12:44:43;5.10;99.90
22153;DHT22;11242;50.536;12.688;2024-03-07T12:47:11;4.90;99.90
22153;DHT22;11242;50.536;12.688;2024-03-07T12:49:38;5.10;99.90
22153;DHT22;11242;50.536;12.688;2024-03-07T12:52:04;5.40;99.90
22153;DHT22;11242;50.536;12.688;2024-03-07T12:54:31;5.40;99.90
22153;DHT22;11242;50.536;12.688;2024-03-07T12:56:56;5.40;99.90
22153;DHT22;11242;50.536;12.688;2024-03-07T12:59:22;5.40;99.90
22153;DHT22;11242;50.536;12.688;2024-03-07T13:01:50;5.50;99.90
22153;DHT22;11242;50.536;12.688;2024-03-07T13:04:15;5.30;99.90
22153;DHT22;11242;50.536;12.688;2024-03-07T13:06:41;5.10;99.90
22153;DHT22;11242;50.536;12.688;2024-03-07T13:09:12;5.10;99.90
22153;DHT22;11242;50.536;12.688;2024-03-07T13:11:39;5.50;99.90
22153;DHT22;11242;50.536;12.688;2024-03-07T13:14:12;5.70;99.90
22153;DHT22;11242;50.536;12.688;2024-03-07T13:16:37;6.10;99.90
22153;DHT22;11242;50.536;12.688;2024-03-07T13:19:03;6.10;99.90
22153;DHT22;11242;50.536;12.688;2024-03-07T13:21:30;6.10;99.90
22153;DHT22;11242;50.536;12.688;2024-03-07T13:23:57;5.90;99.90
22153;DHT22;11242;50.536;12.688;2024-03-07T13:26:23;5.70;99.90
22153;DHT22;11242;50.536;12.688;2024-03-07T13:28:51;5.70;99.90
22153;DHT22;11242;50.536;12.688;2024-03-07T13:31:18;5.50;99.90
22153;DHT22;11242;50.536;12.688;2024-03-07T13:33:44;5.30;99.90
22153;DHT22;11242;50.536;12.688;2024-03-07T13:36:10;5.40;99.90
22153;DHT22;11242;50.536;12.688;2024-03-07T13:38:36;5.40;99.90
22153;DHT22;11242;50.536;12.688;2024-03-07T13:41:02;5.70;99.90
22153;DHT22;11242;50.536;12.688;2024-03-07T13:43:31;5.70;99.90
22153;DHT22;11242;50.536;12.688;2024-03-07T13:45:59;5.70;99.90
22153;DHT22;11242;50.536;12.688;2024-03-07T13:48:25;5.60;99.90
22153;DHT22;11242;50.536;12.688;2024-03-07T13:50:50;5.60;99.90
22153;DHT22;11242;50.536;12.688;2024-03-07T13:53:18;5.40;99.90
22153;DHT22;11242;50.536;12.688;2024-03-07T14:01:29;5.60;99.90
22153;DHT22;11242;50.536;12.688;2024-03-07T14:06:49;6.30;99.90
22153;DHT22;11242;50.536;12.688;2024-03-07T14:09:56;6.20;99.90
22153;DHT22;11242;50.536;12.688;2024-03-07T14:18:33;5.90;99.90
22153;DHT22;11242;50.536;12.688;2024-03-07T14:30:08;5.70;99.90
22153;DHT22;11242;50.536;12.688;2024-03-07T14:32:37;5.70;99.90
22153;DHT22;11242;50.536;12.688;2024-03-07T14:37:49;5.50;99.90
22153;DHT22;11242;50.536;12.688;2024-03-07T14:40:16;5.60;99.90
22153;DHT22;11242;50.536;12.688;2024-03-07T14:42:44;5.80;99.90
22153;DHT22;11242;50.536;12.688;2024-03-07T14:45:19;5.70;99.90
22153;DHT22;11242;50.536;12.688;2024-03-07T14:47:47;5.60;99.90
22153;DHT22;11242;50.536;12.688;2024-03-07T14:50:13;5.50;99.90
22153;DHT22;11242;50.536;12.688;2024-03-07T14:52:44;5.30;99.90
22153;DHT22;11242;50.536;12.688;2024-03-07T14:55:10;5.20;99.90
22153;DHT22;11242;50.536;12.688;2024-03-07T14:57:39;5.30;99.90
22153;DHT22;11242;50.536;12.688;2024-03-07T15:00:11;5.50;99.90
22153;DHT22;11242;50.536;12.688;2024-03-07T15:02:52;5.40;99.90
22153;DHT22;11242;50.536;12.688;2024-03-07T15:05:20;5.30;99.90
22153;DHT22;11242;50.536;12.688;2024-03-07T15:07:46;5.20;99.90
22153;DHT22;11242;50.536;12.688;2024-03-07T15:10:18;5.00;99.90
22153;DHT22;11242;50.536;12.688;2024-03-07T15:12:46;5.10;99.90
22153;DHT22;11242;50.536;12.688;2024-03-07T15:15:16;5.20;99.90
22153;DHT22;11242;50.536;12.688;2024-03-07T15:17:45;5.00;99.90
22153;DHT22;11242;50.536;12.688;2024-03-07T15:20:11;5.00;99.90
22153;DHT22;11242;50.536;12.688;2024-03-07T15:22:51;5.00;99.90
22153;DHT22;11242;50.536;12.688;2024-03-07T15:25:18;5.00;99.90
22153;DHT22;11242;50.536;12.688;2024-03-07T15:27:45;5.10;99.90
22153;DHT22;11242;50.536;12.688;2024-03-07T15:30:18;5.20;99.90
22153;DHT22;11242;50.536;12.688;2024-03-07T15:32:45;4.90;99.90
22153;DHT22;11242;50.536;12.688;2024-03-07T15:35:12;4.90;99.90
22153;DHT22;11242;50.536;12.688;2024-03-07T15:37:41;4.90;99.90
22153;DHT22;11242;50.536;12.688;2024-03-07T15:40:08;4.90;99.90
22153;DHT22;11242;50.536;12.688;2024-03-07T15:42:44;4.90;99.90
22153;DHT22;11242;50.536;12.688;2024-03-07T15:45:20;4.70;99.90
22153;DHT22;11242;50.536;12.688;2024-03-07T15:47:49;4.60;99.90
22153;DHT22;11242;50.536;12.688;2024-03-07T15:50:16;4.50;99.90
22153;DHT22;11242;50.536;12.688;2024-03-07T15:52:44;4.60;99.90
22153;DHT22;11242;50.536;12.688;2024-03-07T15:55:11;4.50;99.90
22153;DHT22;11242;50.536;12.688;2024-03-07T15:57:46;4.40;99.90
22153;DHT22;11242;50.536;12.688;2024-03-07T16:00:15;4.30;99.90
22153;DHT22;11242;50.536;12.688;2024-03-07T16:05:29;4.30;99.90
22153;DHT22;11242;50.536;12.688;2024-03-07T16:07:57;4.20;99.90
22153;DHT22;11242;50.536;12.688;2024-03-07T16:10:25;4.20;99.90